Time;durP1;ratioP1;P1;durP2;ratioP2;P2;SDS_P1;SDS_P2;PMS_P1;PMS_P2;Temp;Humidity;BMP_temperature;BMP_pressure;BME280_temperature;BME280_humidity;BME280_pressure;Samples;Min_cycle;Max_cycle;Signal;HPM_P1;HPM_P2
2022/03/21 00:00:59;;;;;;;6.87;6.00;;;1.40;61.00;;;;;;5118007;28;20179;-86
2022/03/21 00:03:30;;;;;;;9.50;6.93;;;1.30;60.90;;;;;;5099655;28;20654;-88
2022/03/21 00:05:58;;;;;;;8.47;6.30;;;1.30;60.70;;;;;;5099896;28;20175;-93
2022/03/21 00:08:24;;;;;;;7.10;6.30;;;1.30;60.80;;;;;;5099958;28;20182;-91
2022/03/21 00:10:52;;;;;;;6.70;5.90;;;1.20;61.10;;;;;;5117749;28;20203;-88
2022/03/21 00:13:19;;;;;;;7.80;6.30;;;1.10;61.30;;;;;;5098849;28;20270;-87
2022/03/21 00:15:46;;;;;;;7.70;5.93;;;1.10;61.20;;;;;;5117477;28;20176;-90
2022/03/21 00:18:15;;;;;;;8.00;6.33;;;1.20;61.10;;;;;;5118157;28;20233;-87
2022/03/21 00:20:43;;;;;;;7.13;6.50;;;1.20;61.20;;;;;;5122029;28;20202;-86
2022/03/21 00:23:09;;;;;;;12.03;6.47;;;1.20;61.20;;;;;;5099581;28;20230;-91
2022/03/21 00:25:35;;;;;;;7.13;6.00;;;1.10;61.20;;;;;;5099304;28;20285;-87
2022/03/21 00:28:02;;;;;;;7.60;6.37;;;1.10;61.40;;;;;;5117558;28;20744;-90
2022/03/21 00:30:29;;;;;;;8.43;6.30;;;1.20;61.50;;;;;;5099166;28;20197;-89
2022/03/21 00:32:56;;;;;;;8.97;5.97;;;1.20;61.10;;;;;;5098670;28;20183;-89
2022/03/21 00:35:22;;;;;;;8.63;6.27;;;1.30;61.70;;;;;;5098925;28;20639;-88
2022/03/21 00:37:49;;;;;;;7.33;6.00;;;1.20;61.30;;;;;;5118174;28;20246;-92
2022/03/21 00:40:17;;;;;;;7.70;6.30;;;1.20;61.20;;;;;;5117678;28;20174;-91
2022/03/21 00:42:45;;;;;;;8.23;6.50;;;1.30;61.40;;;;;;5117968;28;20178;-88
2022/03/21 00:45:17;;;;;;;7.40;5.97;;;1.30;61.10;;;;;;5121324;28;20729;-89
2022/03/21 00:47:45;;;;;;;10.87;6.60;;;1.30;61.10;;;;;;5104463;28;20274;-89
2022/03/21 00:50:12;;;;;;;7.33;6.43;;;1.40;61.40;;;;;;5117204;28;20637;-87
2022/03/21 00:52:41;;;;;;;6.73;6.03;;;1.40;61.10;;;;;;5099835;28;20214;-88
2022/03/21 00:55:09;;;;;;;6.63;6.03;;;1.40;61.10;;;;;;5119412;28;20168;-88
2022/03/21 00:57:35;;;;;;;7.93;6.53;;;1.50;60.80;;;;;;5117015;28;20174;-86
2022/03/21 01:00:06;;;;;;;7.40;6.63;;;1.30;61.00;;;;;;5139788;28;20172;-88
2022/03/21 01:02:32;;;;;;;9.33;6.47;;;1.30;61.20;;;;;;5120857;28;20165;-87
2022/03/21 01:04:58;;;;;;;7.73;6.87;;;1.30;61.20;;;;;;5104290;28;20172;-88
2022/03/21 01:07:23;;;;;;;6.73;6.03;;;1.30;61.30;;;;;;5097229;28;20272;-88
2022/03/21 01:09:49;;;;;;;8.27;6.47;;;1.30;61.20;;;;;;5115905;28;20174;-88
2022/03/21 01:12:15;;;;;;;7.53;6.57;;;1.30;61.30;;;;;;5115617;28;20274;-91
2022/03/21 01:14:41;;;;;;;7.53;6.73;;;1.30;61.30;;;;;;5115836;28;20175;-89
2022/03/21 01:17:07;;;;;;;6.90;6.00;;;1.30;61.30;;;;;;5115518;28;20171;-88
2022/03/21 01:19:32;;;;;;;8.17;6.73;;;1.20;61.40;;;;;;5115433;28;20180;-89
2022/03/21 01:21:58;;;;;;;8.20;6.70;;;1.30;61.50;;;;;;5115633;28;20234;-92
2022/03/21 01:24:25;;;;;;;7.07;5.87;;;1.30;61.60;;;;;;5115586;28;20223;-91
2022/03/21 01:26:51;;;;;;;7.20;6.00;;;1.30;61.70;;;;;;5096610;28;20215;-89
2022/03/21 01:29:17;;;;;;;7.10;6.03;;;1.20;61.80;;;;;;5115169;28;20220;-93
2022/03/21 01:31:43;;;;;;;7.30;6.17;;;1.20;61.90;;;;;;5097264;28;20206;-91
2022/03/21 01:34:09;;;;;;;6.67;6.07;;;1.20;61.80;;;;;;5115811;28;20176;-91
2022/03/21 01:36:35;;;;;;;7.97;6.27;;;1.10;61.80;;;;;;5132582;28;20182;-91
2022/03/21 01:39:00;;;;;;;6.70;6.00;;;1.00;61.90;;;;;;5129303;28;20207;-86
2022/03/21 01:41:26;;;;;;;7.60;6.40;;;0.90;62.10;;;;;;5125927;28;20213;-91
2022/03/21 01:44:03;;;;;;;7.17;6.33;;;0.90;62.20;;;;;;5123029;28;20177;-87
2022/03/21 01:46:30;;;;;;;6.63;6.03;;;0.90;62.20;;;;;;5098826;28;20185;-89
2022/03/21 01:48:56;;;;;;;6.27;5.67;;;0.90;62.30;;;;;;5115929;28;20257;-89
2022/03/21 01:51:24;;;;;;;6.63;6.03;;;1.00;62.10;;;;;;5116199;28;20203;-91
2022/03/21 01:56:41;;;;;;;6.57;5.50;;;1.00;62.80;;;;;;5095057;28;20683;-86
2022/03/21 01:59:08;;;;;;;7.33;6.60;;;1.00;62.20;;;;;;5095312;28;20176;-88
2022/03/21 02:01:35;;;;;;;10.30;6.20;;;1.00;61.90;;;;;;5078554;28;20184;-87
2022/03/21 02:04:00;;;;;;;7.57;6.30;;;1.00;61.80;;;;;;5094908;28;20184;-87
2022/03/21 02:06:29;;;;;;;8.73;6.47;;;1.10;62.40;;;;;;5094096;28;20163;-87
2022/03/21 02:08:59;;;;;;;6.87;6.03;;;1.20;62.50;;;;;;5094591;28;20660;-87
2022/03/21 02:11:29;;;;;;;7.47;6.60;;;1.20;61.70;;;;;;5078421;28;20199;-86
2022/03/21 02:13:57;;;;;;;8.23;6.70;;;1.20;61.50;;;;;;5095483;28;20177;-89
2022/03/21 02:16:25;;;;;;;10.30;6.57;;;1.20;61.50;;;;;;5093827;28;20176;-89
2022/03/21 02:18:52;;;;;;;7.23;6.53;;;1.20;61.70;;;;;;5094051;28;20250;-88
2022/03/21 02:21:55;;;;;;;8.27;6.57;;;1.20;61.70;;;;;;5094102;28;20172;-86
2022/03/21 02:24:46;;;;;;;13.67;6.40;;;1.10;61.70;;;;;;5031886;28;20206;-88
2022/03/21 02:27:13;;;;;;;9.00;6.60;;;1.20;61.80;;;;;;5075692;28;20172;-87
2022/03/21 02:29:41;;;;;;;7.77;6.90;;;1.20;61.90;;;;;;5093775;28;20296;-91
2022/03/21 02:32:08;;;;;;;7.83;6.60;;;1.20;61.70;;;;;;5093978;28;20212;-90
2022/03/21 02:34:36;;;;;;;7.00;6.30;;;1.20;61.90;;;;;;5094076;28;20212;-88
2022/03/21 02:37:04;;;;;;;7.40;6.30;;;1.30;62.10;;;;;;5093448;28;20172;-87
2022/03/21 02:39:30;;;;;;;9.23;6.53;;;1.20;62.10;;;;;;5105067;28;20231;-89
2022/03/21 02:41:56;;;;;;;8.07;6.63;;;1.30;62.40;;;;;;5122081;28;20171;-88
2022/03/21 02:44:22;;;;;;;7.00;6.30;;;1.30;62.30;;;;;;5109952;28;20590;-89
2022/03/21 02:46:48;;;;;;;7.17;5.80;;;1.20;62.40;;;;;;5080759;28;20271;-89
2022/03/21 02:49:15;;;;;;;6.17;5.57;;;1.10;62.50;;;;;;5098157;28;20258;-90
2022/03/21 02:51:42;;;;;;;7.10;6.20;;;1.10;62.50;;;;;;5097964;28;20212;-92
2022/03/21 02:54:09;;;;;;;7.23;5.63;;;1.10;62.50;;;;;;5097696;28;20168;-90
2022/03/21 02:56:35;;;;;;;7.80;6.40;;;1.10;62.30;;;;;;5097268;28;20167;-89
2022/03/21 02:59:02;;;;;;;6.53;5.93;;;1.00;62.60;;;;;;5096957;28;20257;-89
2022/03/21 03:01:28;;;;;;;7.60;5.73;;;0.90;63.00;;;;;;5097847;28;20229;-87
2022/03/21 03:03:53;;;;;;;8.13;5.87;;;0.90;63.50;;;;;;5098284;28;20199;-92
2022/03/21 03:06:19;;;;;;;6.63;5.97;;;0.80;63.50;;;;;;5083175;28;20239;-91
2022/03/21 03:08:45;;;;;;;6.63;6.00;;;0.70;63.70;;;;;;5084757;28;20175;-88
2022/03/21 03:11:12;;;;;;;7.87;6.23;;;0.70;63.90;;;;;;5080355;28;20210;-89
2022/03/21 03:13:37;;;;;;;8.30;6.97;;;0.60;63.80;;;;;;5079869;28;20232;-89
2022/03/21 03:16:04;;;;;;;7.67;6.27;;;0.60;63.70;;;;;;5097822;28;20172;-86
2022/03/21 03:18:29;;;;;;;10.87;7.97;;;0.60;63.70;;;;;;5097091;28;20171;-86
2022/03/21 03:20:58;;;;;;;6.63;6.00;;;0.60;63.80;;;;;;5097356;28;20193;-88
2022/03/21 03:23:26;;;;;;;7.00;6.27;;;0.60;63.80;;;;;;5100081;28;20176;-88
2022/03/21 03:25:58;;;;;;;7.23;5.93;;;0.60;64.10;;;;;;5103581;28;20246;-86
2022/03/21 03:28:24;;;;;;;6.40;5.70;;;0.60;64.10;;;;;;5104770;28;20228;-88
2022/03/21 03:30:51;;;;;;;9.00;6.00;;;0.70;64.30;;;;;;5105892;28;20510;-88
2022/03/21 03:33:17;;;;;;;7.83;6.47;;;0.70;64.10;;;;;;5101026;28;20182;-89
2022/03/21 03:35:42;;;;;;;7.87;6.23;;;0.80;64.20;;;;;;5085146;28;20167;-90
2022/03/21 03:38:08;;;;;;;7.33;6.23;;;0.80;64.20;;;;;;5103663;28;20214;-90
2022/03/21 03:40:34;;;;;;;7.20;6.50;;;0.80;63.80;;;;;;5083850;28;20171;-93
2022/03/21 03:43:00;;;;;;;6.40;5.80;;;0.70;63.50;;;;;;5108222;28;20167;-91
2022/03/21 03:45:26;;;;;;;10.63;6.23;;;0.60;63.80;;;;;;5104459;28;20698;-86
2022/03/21 03:47:52;;;;;;;7.37;6.17;;;0.60;64.10;;;;;;5097377;28;20168;-91
2022/03/21 03:50:19;;;;;;;7.67;6.20;;;0.50;64.40;;;;;;5096550;28;20171;-89
2022/03/21 03:52:46;;;;;;;7.67;6.50;;;0.50;64.50;;;;;;5096784;28;20210;-87
2022/03/21 03:55:17;;;;;;;7.17;6.20;;;0.40;64.70;;;;;;5096633;28;20177;-88
2022/03/21 03:57:44;;;;;;;6.30;5.70;;;0.40;64.80;;;;;;5096695;28;20158;-88
2022/03/21 04:00:11;;;;;;;7.17;6.47;;;0.30;64.90;;;;;;5096378;28;20190;-88
2022/03/21 04:05:22;;;;;;;6.37;5.77;;;0.10;65.20;;;;;;5098637;28;20184;-85
2022/03/21 04:07:49;;;;;;;7.57;6.40;;;0.10;65.20;;;;;;5100402;28;20648;-87
2022/03/21 04:10:15;;;;;;;9.93;6.27;;;0.10;65.20;;;;;;5097257;28;20175;-91
2022/03/21 04:12:46;;;;;;;7.47;6.13;;;0.10;65.30;;;;;;5096656;28;20206;-89
2022/03/21 04:15:12;;;;;;;6.77;5.97;;;0.00;65.20;;;;;;5096553;28;20189;-89
2022/03/21 04:17:37;;;;;;;6.60;5.90;;;0.10;65.50;;;;;;5096805;28;20160;-88
2022/03/21 04:20:04;;;;;;;7.30;6.60;;;0.20;65.30;;;;;;5079306;28;20178;-91
2022/03/21 04:22:30;;;;;;;9.43;6.00;;;0.10;65.30;;;;;;5087553;28;20202;-92
2022/03/21 04:24:56;;;;;;;7.03;6.13;;;0.10;65.60;;;;;;5101403;28;20193;-90
2022/03/21 04:27:22;;;;;;;9.30;7.33;;;0.10;65.70;;;;;;5120003;28;20166;-88
2022/03/21 04:29:48;;;;;;;7.60;5.97;;;0.10;65.80;;;;;;5100117;28;20279;-89
2022/03/21 04:32:14;;;;;;;9.73;6.20;;;0.20;65.40;;;;;;5096147;28;20641;-87
2022/03/21 04:34:40;;;;;;;8.93;6.60;;;0.20;65.40;;;;;;5095585;28;20167;-86
2022/03/21 04:37:05;;;;;;;8.37;5.90;;;0.30;65.20;;;;;;5095487;28;20171;-86
2022/03/21 04:39:31;;;;;;;8.63;6.57;;;0.30;64.90;;;;;;5077196;28;20179;-87
2022/03/21 04:41:58;;;;;;;8.37;5.60;;;0.10;65.30;;;;;;5095649;28;20178;-86
2022/03/21 04:44:24;;;;;;;7.07;6.37;;;0.20;65.80;;;;;;5096144;28;20196;-85
2022/03/21 04:46:50;;;;;;;6.17;5.33;;;0.20;65.40;;;;;;5096170;28;20254;-92
2022/03/21 04:49:16;;;;;;;6.37;5.77;;;0.20;65.60;;;;;;5096059;28;20248;-92
2022/03/21 04:51:43;;;;;;;6.63;5.70;;;0.40;65.50;;;;;;5095878;28;20198;-93
2022/03/21 04:54:08;;;;;;;6.73;6.07;;;0.30;65.10;;;;;;5078164;28;20175;-93
2022/03/21 04:56:34;;;;;;;7.17;6.47;;;0.30;65.10;;;;;;5095747;28;20179;-93
2022/03/21 04:59:00;;;;;;;8.63;6.47;;;0.30;65.00;;;;;;5095903;28;20164;-91
2022/03/21 05:01:26;;;;;;;7.83;6.50;;;0.30;64.90;;;;;;5094554;28;20664;-89
2022/03/21 05:03:52;;;;;;;6.90;6.20;;;0.30;65.00;;;;;;5077373;28;20175;-89
2022/03/21 05:06:18;;;;;;;7.13;6.07;;;0.30;65.10;;;;;;5095798;28;20182;-89
2022/03/21 05:08:44;;;;;;;9.07;6.40;;;0.30;65.20;;;;;;5096290;28;20168;-89
2022/03/21 05:11:10;;;;;;;19.27;7.17;;;0.20;65.20;;;;;;5078697;28;20206;-90
2022/03/21 05:13:37;;;;;;;9.60;6.57;;;0.20;65.40;;;;;;5097773;28;20225;-90
2022/03/21 05:16:06;;;;;;;9.40;6.30;;;0.20;65.70;;;;;;5080533;28;20175;-93
2022/03/21 05:18:35;;;;;;;10.03;6.93;;;0.30;65.70;;;;;;5099767;28;20300;-90
2022/03/21 05:21:05;;;;;;;8.03;6.97;;;0.40;65.60;;;;;;5103212;28;20176;-88
2022/03/21 05:31:45;;;;;;;8.90;6.70;;;0.40;66.20;;;;;;5100783;28;20207;-90
2022/03/21 05:36:55;;;;;;;7.70;6.57;;;0.50;65.70;;;;;;5095506;28;20212;-87
2022/03/21 05:39:23;;;;;;;7.27;6.50;;;0.50;65.80;;;;;;5096169;28;20182;-89
2022/03/21 05:41:52;;;;;;;9.93;7.00;;;0.50;65.80;;;;;;5097890;28;20511;-88
2022/03/21 05:44:19;;;;;;;9.20;6.53;;;0.60;66.10;;;;;;5099030;28;20645;-88
2022/03/21 05:46:45;;;;;;;9.20;6.93;;;0.60;66.40;;;;;;5079572;28;20179;-88
2022/03/21 05:49:11;;;;;;;7.57;6.50;;;0.70;66.60;;;;;;5082274;28;20187;-88
2022/03/21 05:51:40;;;;;;;8.17;6.60;;;0.60;66.50;;;;;;5082618;28;20206;-86
2022/03/21 05:54:08;;;;;;;9.67;6.73;;;0.60;66.20;;;;;;5110806;28;20215;-85
2022/03/21 05:56:35;;;;;;;9.13;6.33;;;0.60;66.40;;;;;;5115729;28;20170;-86
2022/03/21 06:01:46;;;;;;;9.00;6.53;;;0.70;66.10;;;;;;5118550;28;20197;-85
2022/03/21 06:04:12;;;;;;;8.03;6.37;;;0.70;66.40;;;;;;5104859;28;20182;-86
2022/03/21 06:06:38;;;;;;;10.67;6.53;;;0.70;66.20;;;;;;5135879;28;20242;-85
2022/03/21 06:09:16;;;;;;;7.90;7.10;;;0.80;66.20;;;;;;5125903;28;20170;-89
2022/03/21 06:11:48;;;;;;;10.10;7.33;;;0.90;66.40;;;;;;5103676;28;20566;-89
2022/03/21 06:14:14;;;;;;;8.80;6.93;;;0.80;66.80;;;;;;5099177;28;20182;-90
2022/03/21 06:16:40;;;;;;;13.17;7.23;;;0.90;66.50;;;;;;5098141;28;20179;-91
2022/03/21 06:19:06;;;;;;;13.47;7.27;;;1.00;66.10;;;;;;5114704;28;20231;-90
2022/03/21 06:21:31;;;;;;;9.13;7.70;;;1.00;65.80;;;;;;5096496;28;20735;-88
2022/03/21 06:23:58;;;;;;;9.00;7.40;;;1.10;66.40;;;;;;5115262;28;20648;-90
2022/03/21 06:26:23;;;;;;;8.93;7.00;;;1.10;66.20;;;;;;5116242;28;20184;-87
2022/03/21 06:28:52;;;;;;;10.00;7.07;;;1.20;66.20;;;;;;5098425;28;20248;-88
2022/03/21 06:31:18;;;;;;;8.47;6.97;;;1.20;66.20;;;;;;5098578;28;20215;-89
2022/03/21 06:33:44;;;;;;;7.20;6.50;;;1.20;66.00;;;;;;5096347;28;20186;-88
2022/03/21 06:36:10;;;;;;;12.43;6.83;;;1.30;66.20;;;;;;5113875;28;20175;-87
2022/03/21 06:38:35;;;;;;;10.33;7.40;;;1.40;65.60;;;;;;5113615;28;20170;-89
2022/03/21 06:41:03;;;;;;;9.00;7.20;;;1.50;65.10;;;;;;5095089;28;20536;-91
2022/03/21 06:43:29;;;;;;;7.83;6.93;;;1.70;65.90;;;;;;5113508;28;20179;-89
2022/03/21 06:45:55;;;;;;;13.67;7.77;;;1.80;65.00;;;;;;5113043;28;20171;-89
2022/03/21 06:48:23;;;;;;;10.53;6.77;;;1.90;65.70;;;;;;5095479;28;20205;-87
2022/03/21 06:50:51;;;;;;;11.73;7.97;;;2.00;65.50;;;;;;5113470;28;20557;-86
2022/03/21 06:53:18;;;;;;;12.33;7.37;;;2.20;64.80;;;;;;5113649;28;20168;-88
2022/03/21 06:55:45;;;;;;;12.90;7.57;;;2.20;68.60;;;;;;5113986;28;20640;-85
2022/03/21 06:58:13;;;;;;;15.27;7.43;;;2.40;67.80;;;;;;5114987;28;20182;-86
2022/03/21 07:00:40;;;;;;;11.67;7.03;;;2.40;66.30;;;;;;5115236;28;20510;-86
2022/03/21 07:03:07;;;;;;;10.20;7.33;;;2.60;68.70;;;;;;5113659;28;20504;-84
2022/03/21 07:05:37;;;;;;;8.57;6.67;;;2.80;67.80;;;;;;5114290;28;20173;-85
2022/03/21 07:08:04;;;;;;;8.13;7.17;;;2.80;63.30;;;;;;5119110;28;20203;-85
2022/03/21 07:10:33;;;;;;;11.93;7.63;;;2.80;63.00;;;;;;5114348;28;20199;-86
2022/03/21 07:13:04;;;;;;;14.17;7.30;;;2.90;61.60;;;;;;5114340;28;20207;-89
2022/03/21 07:15:31;;;;;;;17.53;7.57;;;2.90;63.00;;;;;;5096515;28;20172;-89
2022/03/21 07:17:57;;;;;;;11.03;7.80;;;3.00;60.90;;;;;;5114749;28;20169;-89
2022/03/21 07:20:25;;;;;;;10.37;7.00;;;3.00;61.60;;;;;;5115258;28;20171;-90
2022/03/21 07:22:55;;;;;;;7.77;7.03;;;3.10;61.60;;;;;;5113911;28;20170;-86
2022/03/21 07:25:21;;;;;;;10.07;6.77;;;3.20;60.60;;;;;;5116831;28;20195;-88
2022/03/21 07:27:47;;;;;;;12.20;7.90;;;3.30;61.60;;;;;;5118493;28;20255;-87
2022/03/21 07:30:14;;;;;;;10.83;7.30;;;3.40;60.50;;;;;;5117991;28;20692;-89
2022/03/21 07:32:41;;;;;;;7.87;6.80;;;3.50;61.10;;;;;;5117158;28;20669;-89
2022/03/21 07:35:08;;;;;;;11.93;7.23;;;3.50;60.40;;;;;;5098896;28;20181;-90
2022/03/21 07:37:46;;;;;;;10.70;7.03;;;3.70;60.30;;;;;;5117059;28;20533;-87
2022/03/21 07:40:13;;;;;;;8.67;7.40;;;3.70;60.10;;;;;;5117344;28;20150;-87
2022/03/21 07:42:40;;;;;;;13.07;7.30;;;3.80;59.30;;;;;;5122110;28;20177;-90
2022/03/21 07:47:51;;;;;;;7.93;7.13;;;4.20;64.10;;;;;;5122502;28;20264;-89
2022/03/21 07:50:19;;;;;;;8.00;7.10;;;4.50;59.70;;;;;;5103896;28;20173;-86
2022/03/21 07:52:46;;;;;;;11.03;7.40;;;4.60;58.60;;;;;;5122176;28;20214;-87
2022/03/21 07:55:12;;;;;;;15.13;7.57;;;4.70;59.40;;;;;;5138903;28;20162;-89
2022/03/21 07:57:39;;;;;;;9.53;7.57;;;4.60;57.00;;;;;;5140880;28;20186;-86
2022/03/21 08:00:09;;;;;;;9.30;7.47;;;4.70;56.80;;;;;;5106154;28;20192;-90
2022/03/21 08:02:35;;;;;;;8.13;7.33;;;4.80;56.20;;;;;;5099860;28;20174;-85
2022/03/21 08:05:01;;;;;;;11.43;8.00;;;4.90;58.20;;;;;;5098259;28;20206;-90
2022/03/21 08:07:27;;;;;;;8.80;7.43;;;5.00;58.10;;;;;;5099219;28;20170;-87
2022/03/21 08:09:54;;;;;;;9.83;8.30;;;5.10;55.80;;;;;;5117041;28;20621;-90
2022/03/21 08:12:20;;;;;;;9.23;7.40;;;5.20;56.40;;;;;;5117287;28;20212;-87
2022/03/21 08:14:47;;;;;;;13.50;8.10;;;5.30;57.50;;;;;;5118603;28;20168;-89
2022/03/21 08:17:13;;;;;;;10.00;7.30;;;5.40;57.30;;;;;;5103630;28;20182;-85
2022/03/21 08:19:39;;;;;;;9.87;7.00;;;5.50;56.40;;;;;;5124736;28;20199;-85
2022/03/21 08:22:05;;;;;;;8.97;7.20;;;5.50;55.50;;;;;;5118360;28;20625;-87
2022/03/21 08:24:35;;;;;;;7.40;6.70;;;5.50;53.60;;;;;;5097807;28;20181;-87
2022/03/21 08:27:01;;;;;;;8.43;7.63;;;5.60;53.00;;;;;;5098354;28;20179;-87
2022/03/21 08:29:26;;;;;;;12.53;8.20;;;5.50;54.60;;;;;;5116096;28;20286;-87
2022/03/21 08:31:52;;;;;;;9.27;6.93;;;5.60;52.70;;;;;;5117467;28;20656;-87
2022/03/21 08:34:18;;;;;;;8.10;7.30;;;5.60;54.80;;;;;;5119772;28;20248;-86
2022/03/21 08:36:45;;;;;;;11.07;7.07;;;5.70;55.00;;;;;;5100204;28;20178;-85
2022/03/21 08:39:11;;;;;;;7.70;6.90;;;5.80;54.90;;;;;;5098383;28;20388;-87
2022/03/21 08:41:38;;;;;;;10.93;7.47;;;5.90;53.00;;;;;;5097769;28;20276;-88
2022/03/21 08:44:04;;;;;;;8.70;7.13;;;5.90;52.10;;;;;;5116250;28;20256;-88
2022/03/21 08:46:30;;;;;;;8.53;7.03;;;6.00;52.00;;;;;;5116242;28;20166;-87
2022/03/21 08:51:43;;;;;;;9.97;7.40;;;6.10;54.40;;;;;;5116011;28;20196;-88
2022/03/21 08:54:09;;;;;;;14.13;7.30;;;6.20;51.70;;;;;;5117739;28;20173;-88
2022/03/21 08:56:35;;;;;;;22.43;8.63;;;6.30;52.80;;;;;;5118705;28;20171;-88
2022/03/21 08:59:01;;;;;;;19.33;7.60;;;6.30;52.80;;;;;;5117275;28;20182;-87
2022/03/21 09:01:27;;;;;;;54.53;9.60;;;6.40;52.10;;;;;;5115363;28;20171;-86
2022/03/21 09:03:54;;;;;;;21.80;7.60;;;6.40;52.20;;;;;;5115231;28;20164;-89
2022/03/21 09:06:20;;;;;;;18.97;8.00;;;6.50;51.30;;;;;;5096855;28;20264;-88
2022/03/21 09:08:49;;;;;;;29.27;9.50;;;6.50;52.90;;;;;;5115921;28;20166;-87
2022/03/21 09:11:18;;;;;;;23.93;7.83;;;6.60;53.50;;;;;;5115289;28;20200;-89
2022/03/21 09:13:48;;;;;;;13.40;6.80;;;6.70;51.40;;;;;;5115241;28;20179;-86
2022/03/21 09:16:15;;;;;;;7.53;6.40;;;6.70;50.80;;;;;;5117110;28;20257;-89
2022/03/21 09:18:42;;;;;;;10.03;7.20;;;6.70;50.50;;;;;;5115859;28;20621;-90
2022/03/21 09:21:08;;;;;;;11.13;7.13;;;6.80;50.10;;;;;;5115658;28;20162;-89
2022/03/21 09:23:34;;;;;;;13.97;7.23;;;6.80;51.10;;;;;;5115411;28;20200;-88
2022/03/21 09:26:01;;;;;;;15.13;7.37;;;6.70;51.10;;;;;;5115361;28;20258;-88
2022/03/21 09:28:33;;;;;;;8.87;6.83;;;6.80;50.60;;;;;;5114720;28;20230;-86
2022/03/21 09:30:59;;;;;;;9.30;6.93;;;6.80;50.20;;;;;;5115208;28;20199;-87
2022/03/21 09:33:25;;;;;;;11.20;7.10;;;6.80;50.50;;;;;;5096735;28;20239;-88
2022/03/21 09:35:53;;;;;;;18.73;7.30;;;7.00;49.40;;;;;;5116651;28;20201;-89
2022/03/21 09:38:19;;;;;;;12.93;7.20;;;7.10;49.20;;;;;;5097034;28;20185;-90
2022/03/21 09:40:46;;;;;;;8.70;7.50;;;7.00;49.80;;;;;;5097013;28;20173;-91
2022/03/21 09:43:13;;;;;;;9.50;7.60;;;6.90;50.70;;;;;;5098717;28;20289;-90
2022/03/21 09:45:39;;;;;;;11.23;7.10;;;6.90;50.60;;;;;;5096312;28;20234;-91
2022/03/21 09:48:11;;;;;;;16.90;7.17;;;7.00;52.50;;;;;;5114266;28;20171;-90
2022/03/21 09:50:40;;;;;;;7.30;6.57;;;7.10;50.80;;;;;;5096372;28;20262;-90
2022/03/21 09:53:15;;;;;;;8.10;6.70;;;7.10;50.00;;;;;;5096559;28;20209;-86
2022/03/21 09:55:46;;;;;;;9.70;7.20;;;7.10;49.00;;;;;;5114950;28;20199;-88
2022/03/21 09:58:12;;;;;;;7.73;6.83;;;7.10;49.20;;;;;;5096601;28;20686;-85
2022/03/21 10:00:43;;;;;;;7.70;6.93;;;7.20;49.90;;;;;;5096160;28;20206;-87
2022/03/21 10:03:10;;;;;;;6.83;6.10;;;7.20;48.90;;;;;;5096203;28;20222;-86
2022/03/21 10:05:38;;;;;;;10.53;6.80;;;7.20;49.40;;;;;;5096030;28;20263;-89
2022/03/21 10:08:26;;;;;;;10.10;6.80;;;7.20;48.60;;;;;;5114866;28;20167;-87
2022/03/21 10:10:56;;;;;;;9.37;7.13;;;7.30;48.90;;;;;;5114556;28;20151;-88
2022/03/21 10:13:26;;;;;;;9.43;7.63;;;7.40;49.30;;;;;;5114433;28;20182;-90
2022/03/21 10:16:10;;;;;;;9.27;7.13;;;7.40;49.70;;;;;;5114927;28;20223;-88
2022/03/21 10:18:37;;;;;;;11.20;8.70;;;7.40;50.60;;;;;;5097677;28;20557;-87
2022/03/21 10:21:14;;;;;;;13.10;7.20;;;7.50;49.80;;;;;;5098541;28;20268;-88
2022/03/21 10:23:40;;;;;;;8.40;6.73;;;7.70;49.70;;;;;;5116461;28;20173;-88
2022/03/21 10:26:28;;;;;;;8.03;7.23;;;7.70;48.80;;;;;;5116144;28;20506;-88
2022/03/21 10:28:56;;;;;;;7.50;6.80;;;7.70;47.70;;;;;;5114649;28;20222;-88
2022/03/21 10:31:39;;;;;;;9.53;6.87;;;7.70;47.70;;;;;;5115106;28;20277;-86
2022/03/21 10:34:10;;;;;;;9.03;6.70;;;7.60;47.90;;;;;;5096504;28;20231;-87
2022/03/21 10:37:16;;;;;;;12.43;6.70;;;7.60;47.60;;;;;;5096436;28;20188;-86
2022/03/21 10:39:51;;;;;;;8.70;6.67;;;7.60;47.60;;;;;;5115688;28;20185;-85
2022/03/21 10:42:17;;;;;;;8.87;6.50;;;7.60;47.70;;;;;;5118476;28;20168;-88
2022/03/21 10:44:54;;;;;;;7.43;6.70;;;7.60;47.90;;;;;;5119958;28;20164;-86
2022/03/21 10:47:19;;;;;;;12.10;6.40;;;7.60;48.30;;;;;;5125099;28;20212;-86
2022/03/21 10:49:45;;;;;;;8.27;6.97;;;7.60;48.40;;;;;;5103314;28;20169;-89
2022/03/21 10:52:17;;;;;;;8.80;6.90;;;7.80;48.60;;;;;;5116870;28;20629;-89
2022/03/21 10:54:50;;;;;;;9.07;6.57;;;7.90;46.60;;;;;;5114279;28;20172;-87
2022/03/21 10:57:31;;;;;;;7.77;6.63;;;8.00;46.40;;;;;;5095817;28;20659;-86
2022/03/21 11:00:22;;;;;;;14.83;6.77;;;8.00;47.70;;;;;;5114699;28;20217;-89
2022/03/21 11:02:51;;;;;;;7.90;7.10;;;8.10;46.70;;;;;;5119556;28;20180;-86
2022/03/21 11:05:18;;;;;;;8.00;7.20;;;8.10;47.00;;;;;;5103282;28;20630;-86
2022/03/21 11:07:49;;;;;;;8.87;7.27;;;8.30;46.50;;;;;;5104820;28;20169;-86
2022/03/21 11:10:15;;;;;;;7.40;6.70;;;8.20;46.70;;;;;;5125087;28;20591;-86
2022/03/21 11:12:42;;;;;;;8.30;7.50;;;8.30;46.50;;;;;;5110043;28;20211;-84
2022/03/21 11:15:14;;;;;;;8.20;7.03;;;8.40;45.70;;;;;;5123291;28;20259;-85
2022/03/21 11:17:44;;;;;;;9.17;7.90;;;8.40;46.40;;;;;;5120285;28;20180;-90
2022/03/21 11:20:12;;;;;;;10.47;7.23;;;8.30;46.40;;;;;;5100415;28;20249;-89
2022/03/21 11:22:40;;;;;;;7.37;6.67;;;8.40;46.90;;;;;;5118696;28;20537;-88
2022/03/21 11:25:16;;;;;;;10.37;6.67;;;8.40;47.70;;;;;;5117889;28;20505;-86
2022/03/21 11:27:45;;;;;;;9.90;6.77;;;8.50;46.50;;;;;;5099437;28;20168;-88
2022/03/21 11:30:43;;;;;;;8.03;7.23;;;8.50;45.00;;;;;;5098985;28;20532;-87
2022/03/21 11:33:28;;;;;;;9.20;6.70;;;8.50;45.40;;;;;;5117817;28;20207;-85
2022/03/21 11:36:08;;;;;;;11.87;7.60;;;8.50;46.20;;;;;;5119030;28;20177;-85
2022/03/21 11:38:46;;;;;;;7.80;7.00;;;8.70;46.50;;;;;;5105722;28;20172;-85
2022/03/21 11:41:22;;;;;;;7.07;6.47;;;8.80;45.00;;;;;;5122342;28;20220;-87
2022/03/21 11:44:06;;;;;;;6.93;6.37;;;8.80;43.80;;;;;;5119129;28;20173;-87
2022/03/21 11:46:34;;;;;;;9.47;6.77;;;8.80;44.20;;;;;;5100287;28;20265;-89
2022/03/21 11:49:01;;;;;;;7.03;6.43;;;8.80;44.00;;;;;;5121661;28;20169;-91
2022/03/21 11:51:34;;;;;;;7.63;6.90;;;8.80;44.30;;;;;;5119564;28;20202;-89
2022/03/21 11:53:59;;;;;;;11.30;7.27;;;8.80;44.80;;;;;;5118796;28;20172;-86
2022/03/21 11:56:40;;;;;;;12.63;6.97;;;8.80;45.30;;;;;;5117095;28;20647;-89
2022/03/21 11:59:07;;;;;;;9.90;6.60;;;9.00;45.40;;;;;;5118188;28;20617;-89
2022/03/21 12:01:33;;;;;;;8.40;6.63;;;9.00;45.40;;;;;;5101243;28;20170;-91
2022/03/21 12:04:26;;;;;;;6.10;5.50;;;9.10;44.10;;;;;;5124607;28;20170;-89
2022/03/21 12:06:58;;;;;;;8.83;5.97;;;9.10;42.70;;;;;;5121178;28;20216;-88
2022/03/21 12:09:24;;;;;;;6.70;6.10;;;9.20;42.40;;;;;;5118880;28;20161;-86
2022/03/21 12:11:50;;;;;;;6.67;5.90;;;9.20;42.60;;;;;;5116097;28;20290;-88
2022/03/21 12:14:19;;;;;;;9.57;5.87;;;9.10;42.10;;;;;;5098197;28;20235;-89
2022/03/21 12:16:46;;;;;;;7.00;6.37;;;9.20;42.50;;;;;;5118016;28;20229;-84
2022/03/21 12:19:12;;;;;;;5.73;5.20;;;9.20;42.70;;;;;;5099863;28;20170;-84
2022/03/21 12:21:38;;;;;;;6.03;5.50;;;9.30;42.70;;;;;;5099897;28;20174;-86
2022/03/21 12:24:15;;;;;;;6.13;5.23;;;9.40;42.90;;;;;;5117129;28;20169;-90
2022/03/21 12:26:52;;;;;;;8.23;5.60;;;9.40;42.40;;;;;;5117791;28;20165;-87
2022/03/21 12:29:32;;;;;;;6.37;5.70;;;9.60;42.30;;;;;;5119427;28;20715;-89
2022/03/21 12:32:26;;;;;;;6.10;5.40;;;9.80;41.70;;;;;;5127773;28;20678;-88
2022/03/21 12:34:56;;;;;;;7.43;6.00;;;9.70;42.50;;;;;;5122604;28;20183;-88
2022/03/21 12:37:38;;;;;;;6.00;5.40;;;9.70;41.10;;;;;;5122651;28;20202;-87
2022/03/21 12:40:13;;;;;;;8.37;5.63;;;9.60;41.70;;;;;;5108605;28;20177;-84
2022/03/21 12:42:45;;;;;;;11.87;5.60;;;9.60;40.90;;;;;;5126875;28;20172;-87
2022/03/21 12:45:17;;;;;;;7.37;5.63;;;9.50;40.90;;;;;;5123807;28;20185;-88
2022/03/21 12:47:43;;;;;;;5.73;5.27;;;9.50;40.90;;;;;;5118968;28;20245;-86
2022/03/21 12:50:09;;;;;;;6.37;5.30;;;9.50;40.60;;;;;;5118464;28;20571;-88
2022/03/21 12:52:36;;;;;;;6.23;5.73;;;9.70;41.10;;;;;;5124839;28;20201;-89
2022/03/21 12:55:03;;;;;;;13.67;5.73;;;9.70;41.10;;;;;;5117375;28;20182;-90
2022/03/21 12:57:31;;;;;;;10.63;5.90;;;9.80;41.60;;;;;;5100970;28;20564;-88
2022/03/21 13:00:19;;;;;;;9.30;5.40;;;9.90;42.50;;;;;;5117348;28;20259;-89
2022/03/21 13:02:45;;;;;;;6.67;5.40;;;9.90;42.30;;;;;;5098638;28;20181;-89
2022/03/21 13:10:43;;;;;;;6.00;5.40;;;9.90;42.10;;;;;;5115996;28;20162;-89
2022/03/21 13:13:09;;;;;;;6.47;5.87;;;9.90;42.10;;;;;;5115237;28;20282;-85
2022/03/21 13:15:35;;;;;;;7.47;6.00;;;9.90;42.60;;;;;;5096959;28;20162;-90
2022/03/21 13:18:03;;;;;;;6.57;5.80;;;9.80;41.80;;;;;;5116234;28;20634;-85
2022/03/21 13:20:35;;;;;;;7.27;5.90;;;9.80;42.40;;;;;;5116791;28;20621;-85
2022/03/21 13:23:04;;;;;;;6.33;5.57;;;9.90;42.40;;;;;;5125817;28;20260;-84
2022/03/21 13:25:35;;;;;;;7.00;5.43;;;9.90;42.20;;;;;;5128200;28;20187;-86
2022/03/21 13:28:16;;;;;;;5.90;5.40;;;9.90;42.10;;;;;;5127352;28;20651;-83
2022/03/21 13:31:19;;;;;;;6.73;5.57;;;9.90;42.70;;;;;;5127689;28;20264;-87
2022/03/21 13:33:56;;;;;;;6.27;5.67;;;9.80;41.70;;;;;;5037887;28;20186;-86